Time;durP1;ratioP1;P1;durP2;ratioP2;P2;SDS_P1;SDS_P2;PMS_P1;PMS_P2;Temp;Humidity;BMP_temperature;BMP_pressure;BME280_temperature;BME280_humidity;BME280_pressure;Samples;Min_cycle;Max_cycle;Signal;HPM_P1;HPM_P2
2023/05/04 00:01:14;;;;;;;11.93;4.03;;;7.70;17.40;;;;;;4993217;28;20442;-61
2023/05/04 00:03:40;;;;;;;10.52;4.53;;;7.60;19.80;;;;;;4982843;28;20547;-62
2023/05/04 00:06:06;;;;;;;11.10;4.10;;;;;;;;;;4989442;28;20044;-62
2023/05/04 00:08:32;;;;;;;10.88;4.03;;;8.10;14.90;;;;;;4986179;28;20446;-62
2023/05/04 00:10:57;;;;;;;8.27;3.97;;;7.60;19.60;;;;;;4987740;28;20049;-61
2023/05/04 00:13:23;;;;;;;10.70;4.10;;;7.70;18.30;;;;;;4990039;28;20069;-62
2023/05/04 00:15:49;;;;;;;8.10;3.90;;;7.50;19.10;;;;;;4984122;28;20103;-62
2023/05/04 00:18:15;;;;;;;9.73;4.45;;;;;;;;;;4981084;28;20080;-61
2023/05/04 00:20:40;;;;;;;9.82;4.20;;;7.60;21.60;;;;;;4985214;28;20496;-61
2023/05/04 00:23:06;;;;;;;9.10;4.20;;;7.20;21.40;;;;;;4985454;28;20073;-61
2023/05/04 00:25:32;;;;;;;11.32;4.32;;;;;;;;;;4977713;28;20080;-61
2023/05/04 00:27:58;;;;;;;9.45;4.50;;;;;;;;;;4983664;28;20145;-61
2023/05/04 00:30:24;;;;;;;8.20;4.13;;;7.50;32.70;;;;;;4992585;28;20042;-61
2023/05/04 00:32:50;;;;;;;9.25;4.47;;;;;;;;;;4988620;28;20857;-61
2023/05/04 00:35:15;;;;;;;8.07;4.55;;;7.40;23.30;;;;;;4991251;28;20041;-61
2023/05/04 00:37:42;;;;;;;9.40;4.40;;;7.60;32.30;;;;;;4983921;28;20046;-61
2023/05/04 00:40:09;;;;;;;9.88;4.78;;;;;;;;;;4976819;28;20482;-61
2023/05/04 00:42:35;;;;;;;11.75;4.90;;;7.40;37.90;;;;;;4987810;28;20053;-61
2023/05/04 00:45:01;;;;;;;7.95;3.88;;;;;;;;;;4983446;28;20038;-61
2023/05/04 00:47:28;;;;;;;9.98;4.82;;;7.40;45.00;;;;;;4991933;28;20095;-61
2023/05/04 00:49:54;;;;;;;8.80;4.20;;;7.30;40.80;;;;;;4992870;28;20547;-61
2023/05/04 00:52:21;;;;;;;9.50;4.40;;;7.40;46.40;;;;;;4983287;28;20029;-61
2023/05/04 00:54:47;;;;;;;8.93;4.45;;;7.30;47.20;;;;;;4984722;28;20048;-61
2023/05/04 00:57:15;;;;;;;9.52;5.30;;;;;;;;;;4989613;28;20049;-61
2023/05/04 00:59:40;;;;;;;11.75;4.60;;;7.30;49.00;;;;;;4988390;28;20526;-61
2023/05/04 01:02:06;;;;;;;9.45;4.80;;;7.30;53.30;;;;;;4979379;28;20043;-61
2023/05/04 01:04:32;;;;;;;12.18;4.70;;;;;;;;;;4982833;28;20077;-61
2023/05/04 01:07:25;;;;;;;11.88;5.40;;;;;;;;;;4986917;28;20154;-61
2023/05/04 01:10:01;;;;;;;7.45;3.90;;;;;;;;;;4959948;28;20046;-61
2023/05/04 01:12:33;;;;;;;13.63;5.10;;;;;;;;;;4981760;28;20042;-61
2023/05/04 01:14:59;;;;;;;10.93;5.18;;;7.30;60.70;;;;;;4985453;28;20654;-61
2023/05/04 01:17:25;;;;;;;9.20;4.75;;;7.30;60.70;;;;;;4987616;28;20101;-61
2023/05/04 01:19:52;;;;;;;14.63;5.35;;;7.40;59.90;;;;;;4991377;28;20129;-61
2023/05/04 01:22:19;;;;;;;11.23;5.38;;;;;;;;;;4986015;28;20133;-62
2023/05/04 01:24:45;;;;;;;9.48;4.28;;;;;;;;;;4975828;28;20112;-61
2023/05/04 01:27:17;;;;;;;10.25;5.13;;;;;;;;;;4980032;28;20419;-62
2023/05/04 01:30:07;;;;;;;9.75;4.65;;;7.30;71.70;;;;;;4980967;28;20367;-61
2023/05/04 01:32:34;;;;;;;11.00;4.50;;;;;;;;;;4983986;28;20042;-62
2023/05/04 01:35:00;;;;;;;8.90;4.78;;;;;;;;;;4983241;28;20080;-62
2023/05/04 01:37:26;;;;;;;8.50;4.63;;;;;;;;;;4989897;28;20038;-61
2023/05/04 01:39:52;;;;;;;10.35;4.47;;;7.30;78.10;;;;;;4975716;28;20061;-61
2023/05/04 01:42:18;;;;;;;11.40;5.50;;;;;;;;;;4984074;28;20111;-62
2023/05/04 01:44:44;;;;;;;11.85;4.40;;;;;;;;;;4984761;28;20137;-61
2023/05/04 01:47:10;;;;;;;10.30;5.07;;;7.10;80.10;;;;;;4981284;28;20405;-61
2023/05/04 01:49:36;;;;;;;12.88;5.10;;;;;;;;;;4986330;28;20085;-61
2023/05/04 01:52:02;;;;;;;8.60;5.10;;;7.30;83.30;;;;;;4983920;28;20081;-62
2023/05/04 01:54:27;;;;;;;9.63;4.82;;;7.20;87.50;;;;;;4978960;28;20073;-62
2023/05/04 01:56:53;;;;;;;9.63;4.70;;;7.10;86.60;;;;;;4984271;28;20551;-62
2023/05/04 01:59:19;;;;;;;10.10;5.07;;;;;;;;;;4976173;28;20045;-62
2023/05/04 02:01:45;;;;;;;8.98;4.85;;;6.90;91.10;;;;;;4982891;28;20516;-61
2023/05/04 02:04:11;;;;;;;9.50;4.70;;;;;;;;;;4984770;28;20156;-61
2023/05/04 02:06:36;;;;;;;11.93;4.93;;;7.20;97.90;;;;;;4987228;28;20046;-61
2023/05/04 02:09:02;;;;;;;9.98;5.57;;;7.20;93.20;;;;;;4977706;28;20135;-62
2023/05/04 02:11:28;;;;;;;10.85;4.55;;;7.10;98.10;;;;;;4969430;28;20038;-61
2023/05/04 02:13:55;;;;;;;11.02;4.57;;;7.00;80.50;;;;;;4974703;28;20086;-62
2023/05/04 02:16:21;;;;;;;12.95;5.60;;;7.10;95.60;;;;;;4978764;28;20046;-61
2023/05/04 02:18:47;;;;;;;10.00;5.32;;;;;;;;;;4986712;28;20877;-62
2023/05/04 02:21:13;;;;;;;11.63;5.65;;;7.10;96.20;;;;;;4979197;28;20116;-62
2023/05/04 02:23:39;;;;;;;8.48;4.60;;;;;;;;;;4984785;28;20113;-62
2023/05/04 02:26:06;;;;;;;11.88;4.97;;;;;;;;;;4978286;28;20050;-61
2023/05/04 02:28:32;;;;;;;10.52;4.45;;;;;;;;;;4978834;28;20155;-61
2023/05/04 02:30:58;;;;;;;9.88;5.28;;;;;;;;;;4984011;28;20440;-62
2023/05/04 02:33:24;;;;;;;12.45;4.38;;;;;;;;;;4988804;28;20091;-61
2023/05/04 02:35:50;;;;;;;9.98;4.90;;;7.10;99.90;;;;;;4985884;28;20820;-61
2023/05/04 02:38:16;;;;;;;9.82;4.40;;;;;;;;;;4990846;28;20041;-61
2023/05/04 02:40:42;;;;;;;9.73;4.85;;;7.20;99.90;;;;;;4983685;28;20812;-61
2023/05/04 02:43:08;;;;;;;10.93;4.90;;;7.10;99.90;;;;;;4985095;28;20087;-61
2023/05/04 02:45:34;;;;;;;12.27;4.47;;;;;;;;;;4985373;28;20081;-61
2023/05/04 02:48:00;;;;;;;13.18;5.13;;;;;;;;;;4990227;28;20044;-61
2023/05/04 02:50:26;;;;;;;10.63;5.80;;;7.20;99.90;;;;;;4990911;28;20850;-61
2023/05/04 02:52:52;;;;;;;10.25;5.03;;;;;;;;;;4989430;28;20470;-61
2023/05/04 02:55:18;;;;;;;8.98;4.47;;;7.20;99.90;;;;;;4994389;28;20053;-61
2023/05/04 02:57:43;;;;;;;9.52;4.95;;;7.10;99.90;;;;;;4993029;28;20264;-61
2023/05/04 03:00:10;;;;;;;11.50;5.15;;;;;;;;;;4988359;28;20181;-60
2023/05/04 03:02:35;;;;;;;11.05;5.10;;;7.30;99.90;;;;;;4985678;28;20047;-61
2023/05/04 03:05:01;;;;;;;10.13;4.93;;;6.90;99.90;;;;;;4994835;28;20400;-61
2023/05/04 03:07:28;;;;;;;10.02;4.90;;;;;;;;;;4990300;28;20045;-61
2023/05/04 03:09:53;;;;;;;10.27;4.60;;;7.10;99.90;;;;;;4993346;28;20220;-61
2023/05/04 03:12:19;;;;;;;10.40;5.20;;;7.20;99.90;;;;;;4996785;28;20174;-61
2023/05/04 03:14:45;;;;;;;12.57;5.28;;;7.10;99.90;;;;;;5004410;28;20033;-61
2023/05/04 03:17:10;;;;;;;14.02;5.93;;;7.10;99.90;;;;;;4987680;28;20054;-61
2023/05/04 03:19:36;;;;;;;10.70;5.47;;;7.20;99.90;;;;;;4988728;28;20042;-60
2023/05/04 03:22:02;;;;;;;8.73;4.50;;;;;;;;;;4989862;28;20057;-61
2023/05/04 03:24:27;;;;;;;14.52;5.30;;;7.30;99.90;;;;;;4990382;28;20620;-61
2023/05/04 03:26:53;;;;;;;10.50;5.28;;;7.10;99.90;;;;;;4989778;28;20124;-60
2023/05/04 03:29:19;;;;;;;10.60;4.72;;;7.30;99.90;;;;;;4986306;28;20145;-61
2023/05/04 03:31:45;;;;;;;6.78;4.13;;;;;;;;;;5001483;28;20061;-61
2023/05/04 03:34:13;;;;;;;9.65;5.28;;;;;;;;;;4990912;28;20062;-61
2023/05/04 03:36:39;;;;;;;11.75;5.38;;;;;;;;;;4990708;28;20150;-62
2023/05/04 03:39:05;;;;;;;10.18;5.22;;;7.20;99.90;;;;;;4992840;28;20530;-61
2023/05/04 03:41:31;;;;;;;11.82;5.22;;;;;;;;;;4995503;28;20103;-62
2023/05/04 03:43:57;;;;;;;11.55;5.55;;;7.20;99.90;;;;;;4988055;28;20128;-61
2023/05/04 03:46:22;;;;;;;11.18;6.00;;;7.30;99.90;;;;;;4988335;28;20478;-61
2023/05/04 03:48:48;;;;;;;9.65;5.80;;;7.20;99.90;;;;;;4986311;28;20056;-61
2023/05/04 03:51:14;;;;;;;11.73;5.75;;;7.10;99.90;;;;;;4976761;28;20042;-61
2023/05/04 03:53:40;;;;;;;13.30;5.90;;;;;;;;;;4993552;28;20042;-61
2023/05/04 03:56:06;;;;;;;15.60;6.53;;;;;;;;;;4995772;28;20042;-61
2023/05/04 03:58:32;;;;;;;11.27;5.10;;;;;;;;;;4983512;28;20061;-61
2023/05/04 04:00:58;;;;;;;11.98;4.78;;;7.00;99.90;;;;;;4978274;28;20049;-60
2023/05/04 04:03:24;;;;;;;12.40;6.07;;;7.00;99.90;;;;;;4978128;28;20482;-59
2023/05/04 04:05:53;;;;;;;13.07;5.57;;;;;;;;;;4993983;28;20042;-61
2023/05/04 04:08:18;;;;;;;9.98;5.35;;;7.10;99.90;;;;;;4989118;28;20038;-61
2023/05/04 04:10:44;;;;;;;10.73;5.32;;;7.10;99.90;;;;;;4990183;28;20124;-62
2023/05/04 04:13:10;;;;;;;10.60;5.57;;;;;;;;;;4987214;28;20049;-61
2023/05/04 04:15:36;;;;;;;12.15;6.30;;;;;;;;;;4990132;28;20045;-62
2023/05/04 04:18:02;;;;;;;22.35;7.60;;;7.00;99.90;;;;;;4992767;28;20045;-62
2023/05/04 04:20:28;;;;;;;9.55;5.40;;;7.20;99.90;;;;;;4986228;28;20046;-61
2023/05/04 04:22:54;;;;;;;11.77;5.53;;;;;;;;;;4991490;28;20462;-61
2023/05/04 04:25:20;;;;;;;12.50;5.93;;;;;;;;;;4985352;28;20045;-61
2023/05/04 04:27:45;;;;;;;10.50;6.43;;;7.00;99.90;;;;;;4991622;28;20428;-62
2023/05/04 04:30:13;;;;;;;13.07;6.05;;;6.90;99.90;;;;;;4986569;28;20480;-61
2023/05/04 04:32:39;;;;;;;10.93;5.88;;;7.10;99.90;;;;;;4985025;28;20046;-61
2023/05/04 04:35:05;;;;;;;15.43;5.85;;;;;;;;;;4986498;28;20053;-62
2023/05/04 04:37:31;;;;;;;10.63;5.72;;;;;;;;;;4986842;28;20046;-61
2023/05/04 04:39:57;;;;;;;12.25;6.45;;;7.30;99.90;;;;;;4987549;28;20099;-61
2023/05/04 04:42:23;;;;;;;12.10;5.60;;;7.20;99.90;;;;;;4984923;28;20422;-61
2023/05/04 04:44:48;;;;;;;16.70;6.63;;;7.10;99.90;;;;;;4994802;28;20052;-61
2023/05/04 04:47:15;;;;;;;11.85;6.25;;;7.20;99.90;;;;;;4984227;28;20644;-61
2023/05/04 04:49:41;;;;;;;10.50;5.95;;;7.30;99.90;;;;;;4991019;28;20037;-62
2023/05/04 04:52:07;;;;;;;13.55;6.25;;;;;;;;;;4983589;28;20108;-61
2023/05/04 04:54:33;;;;;;;10.82;5.50;;;7.40;99.90;;;;;;4997913;28;20100;-61
2023/05/04 04:56:58;;;;;;;11.70;6.35;;;7.40;99.90;;;;;;4994563;28;20885;-61
2023/05/04 04:59:24;;;;;;;13.52;6.68;;;7.40;99.90;;;;;;4989269;28;20045;-61
2023/05/04 05:01:50;;;;;;;12.43;6.50;;;7.40;99.90;;;;;;4982274;28;20038;-61
2023/05/04 05:04:18;;;;;;;15.32;7.63;;;;;;;;;;4966294;28;20046;-61
2023/05/04 05:06:44;;;;;;;11.90;6.18;;;;;;;;;;4989273;28;20053;-60
2023/05/04 05:09:10;;;;;;;19.15;7.85;;;;;;;;;;4984706;28;20505;-60
2023/05/04 05:11:36;;;;;;;12.02;6.80;;;7.70;99.90;;;;;;4989289;28;20392;-62
2023/05/04 05:14:01;;;;;;;12.05;5.90;;;8.20;99.90;;;;;;4985199;28;20049;-61
2023/05/04 05:16:27;;;;;;;13.00;6.18;;;;;;;;;;4985849;28;20038;-62
2023/05/04 05:18:53;;;;;;;10.23;5.57;;;8.00;99.90;;;;;;4977036;28;20061;-62
2023/05/04 05:21:19;;;;;;;12.57;6.00;;;8.00;99.90;;;;;;4989185;28;20030;-62
2023/05/04 05:23:44;;;;;;;11.18;5.85;;;8.00;99.90;;;;;;4985600;28;20033;-62
2023/05/04 05:26:10;;;;;;;13.45;6.05;;;;;;;;;;4988995;28;20049;-62
2023/05/04 05:28:36;;;;;;;11.65;6.57;;;8.00;99.90;;;;;;4988622;28;20065;-62
2023/05/04 05:31:02;;;;;;;16.15;7.85;;;;;;;;;;4992711;28;20535;-62
2023/05/04 05:33:28;;;;;;;10.45;5.35;;;8.10;99.90;;;;;;4982548;28;20039;-62
2023/05/04 05:35:53;;;;;;;13.82;5.95;;;8.10;99.90;;;;;;4987130;28;20042;-62
2023/05/04 05:38:20;;;;;;;12.00;5.70;;;;;;;;;;4993679;28;20050;-62
2023/05/04 05:40:47;;;;;;;9.75;5.13;;;8.40;99.90;;;;;;4990293;28;20089;-62
2023/05/04 05:43:13;;;;;;;9.90;5.50;;;8.40;99.90;;;;;;4991742;28;20045;-62
2023/05/04 05:45:39;;;;;;;12.85;5.93;;;;;;;;;;4989850;28;20073;-62
2023/05/04 05:48:05;;;;;;;11.98;5.45;;;8.50;99.90;;;;;;4992638;28;20073;-62
2023/05/04 05:50:30;;;;;;;12.23;5.68;;;8.60;99.90;;;;;;4989702;28;20144;-62
2023/05/04 05:52:56;;;;;;;12.75;5.68;;;8.60;99.90;;;;;;4986189;28;20039;-62
2023/05/04 05:55:22;;;;;;;13.48;6.47;;;;;;;;;;4972917;28;20107;-62
2023/05/04 05:57:48;;;;;;;16.27;6.45;;;8.60;99.90;;;;;;4989499;28;20040;-62
2023/05/04 06:00:14;;;;;;;11.23;5.70;;;8.60;99.90;;;;;;4987376;28;20048;-62
2023/05/04 06:02:40;;;;;;;12.43;6.05;;;8.90;99.90;;;;;;4993193;28;20149;-62
2023/05/04 06:05:06;;;;;;;12.52;5.80;;;8.80;99.90;;;;;;4990121;28;20048;-62
2023/05/04 06:07:32;;;;;;;12.18;5.40;;;9.00;99.90;;;;;;4992340;28;20081;-62
2023/05/04 06:09:58;;;;;;;11.18;5.55;;;;;;;;;;4984176;28;20042;-62
2023/05/04 06:12:23;;;;;;;10.43;5.43;;;9.10;99.90;;;;;;4990249;28;20755;-62
2023/05/04 06:14:49;;;;;;;14.38;5.47;;;9.00;99.90;;;;;;4990118;28;20037;-62
2023/05/04 06:17:16;;;;;;;10.77;5.50;;;9.30;99.90;;;;;;4983421;28;20105;-62
2023/05/04 06:19:41;;;;;;;10.77;4.68;;;8.90;99.90;;;;;;4990872;28;20872;-62
2023/05/04 06:22:07;;;;;;;12.30;5.47;;;;;;;;;;4986201;28;20041;-62
2023/05/04 06:24:33;;;;;;;10.43;5.68;;;9.30;99.90;;;;;;4984875;28;20050;-62
2023/05/04 06:26:59;;;;;;;10.73;5.38;;;10.00;99.90;;;;;;4973451;28;20128;-62
2023/05/04 06:29:24;;;;;;;11.38;5.05;;;9.80;99.90;;;;;;4984383;28;20042;-62
2023/05/04 06:31:50;;;;;;;10.88;5.50;;;9.50;99.90;;;;;;4991721;28;20886;-63
2023/05/04 06:34:16;;;;;;;11.38;4.88;;;;;;;;;;4991404;28;20061;-59
2023/05/04 06:36:42;;;;;;;12.02;4.85;;;9.20;99.90;;;;;;4988971;28;20727;-58
2023/05/04 06:39:08;;;;;;;9.95;4.80;;;9.40;99.90;;;;;;4986499;28;20058;-58
2023/05/04 06:41:34;;;;;;;10.35;5.82;;;9.90;99.90;;;;;;4990322;28;20122;-57
2023/05/04 06:43:59;;;;;;;11.32;4.72;;;10.30;99.90;;;;;;4984656;28;20089;-59
2023/05/04 06:46:26;;;;;;;12.63;5.97;;;10.00;99.90;;;;;;4988356;28;20437;-59
2023/05/04 06:48:53;;;;;;;12.70;6.97;;;9.60;99.90;;;;;;4985971;28;20053;-58
2023/05/04 06:51:19;;;;;;;9.70;4.93;;;9.70;99.90;;;;;;4981949;28;20407;-59
2023/05/04 06:53:46;;;;;;;10.32;5.03;;;10.00;99.90;;;;;;4988494;28;20200;-59
2023/05/04 06:56:11;;;;;;;10.45;5.43;;;10.20;99.90;;;;;;4982149;28;20535;-59
2023/05/04 06:58:37;;;;;;;11.50;4.72;;;9.90;99.90;;;;;;4990673;28;20052;-58
2023/05/04 07:01:03;;;;;;;10.50;5.05;;;10.70;99.90;;;;;;4988454;28;20145;-58
2023/05/04 07:03:28;;;;;;;10.70;4.97;;;10.30;99.20;;;;;;4991854;28;20080;-59
2023/05/04 07:05:54;;;;;;;11.82;4.97;;;10.10;99.90;;;;;;4992844;28;20450;-59
2023/05/04 07:08:20;;;;;;;10.50;4.85;;;10.50;99.20;;;;;;4992554;28;20140;-59
2023/05/04 07:10:45;;;;;;;9.43;4.93;;;10.60;97.30;;;;;;4993678;28;20738;-58
2023/05/04 07:13:12;;;;;;;11.55;4.93;;;10.30;96.90;;;;;;4996134;28;20040;-59
2023/05/04 07:15:38;;;;;;;9.52;5.22;;;10.60;99.40;;;;;;4994578;28;20828;-58
2023/05/04 07:18:04;;;;;;;10.13;5.22;;;11.00;94.70;;;;;;4991039;28;20065;-58
2023/05/04 07:20:29;;;;;;;11.20;4.63;;;10.70;94.10;;;;;;4996864;28;20121;-58
2023/05/04 07:22:55;;;;;;;9.02;4.55;;;10.50;91.50;;;;;;4993371;28;20042;-59
2023/05/04 07:25:25;;;;;;;11.38;4.80;;;10.80;96.20;;;;;;4995222;28;20038;-58
2023/05/04 07:27:51;;;;;;;10.95;5.25;;;10.60;92.30;;;;;;4988081;28;20045;-59
2023/05/04 07:30:18;;;;;;;12.02;5.38;;;;;;;;;;4996395;28;20096;-58
2023/05/04 07:32:44;;;;;;;10.90;5.38;;;11.40;89.00;;;;;;4996335;28;20046;-58
2023/05/04 07:35:10;;;;;;;10.13;5.55;;;10.80;86.00;;;;;;4991500;28;20467;-58
2023/05/04 07:37:35;;;;;;;9.77;5.22;;;11.10;87.30;;;;;;4991748;28;20055;-58
2023/05/04 07:40:04;;;;;;;13.95;6.80;;;;;;;;;;4979270;28;20052;-58
2023/05/04 07:42:30;;;;;;;11.18;5.75;;;;;;;;;;4995513;28;20085;-59
2023/05/04 07:44:56;;;;;;;9.45;5.28;;;11.00;79.50;;;;;;4997177;28;20049;-57
2023/05/04 07:47:22;;;;;;;11.38;4.85;;;11.70;79.20;;;;;;4977213;28;20400;-58
2023/05/04 07:49:47;;;;;;;12.43;5.95;;;11.00;69.80;;;;;;4996306;28;20042;-57
2023/05/04 07:52:14;;;;;;;11.25;5.57;;;;;;;;;;4994689;28;20076;-56
2023/05/04 07:54:39;;;;;;;9.43;5.10;;;11.40;71.90;;;;;;4996623;28;20060;-56
2023/05/04 07:57:05;;;;;;;9.32;5.03;;;11.20;66.00;;;;;;4995495;28;20045;-57
2023/05/04 07:59:31;;;;;;;11.00;5.32;;;11.80;68.10;;;;;;4995493;28;20046;-57
2023/05/04 08:01:56;;;;;;;11.55;5.00;;;12.00;62.50;;;;;;4995575;28;20073;-59
2023/05/04 08:04:22;;;;;;;10.40;5.00;;;12.00;64.40;;;;;;4996692;28;20831;-59
2023/05/04 08:06:49;;;;;;;12.30;5.88;;;;;;;;;;4988909;28;20042;-58
2023/05/04 08:09:15;;;;;;;9.73;5.13;;;12.20;52.60;;;;;;4982148;28;20054;-59
2023/05/04 08:11:41;;;;;;;10.05;5.15;;;12.20;45.90;;;;;;4992397;28;20038;-58
2023/05/04 08:14:07;;;;;;;12.82;5.25;;;12.60;46.20;;;;;;4987906;28;20499;-58
2023/05/04 08:16:33;;;;;;;8.38;4.88;;;12.80;47.50;;;;;;4986819;28;20048;-59
2023/05/04 08:19:00;;;;;;;10.20;5.10;;;13.30;43.50;;;;;;4991514;28;20403;-59
2023/05/04 08:21:26;;;;;;;12.20;5.65;;;;;;;;;;4983393;28;20050;-59
2023/05/04 08:23:52;;;;;;;12.95;5.93;;;12.90;33.60;;;;;;4988808;28;20630;-59
2023/05/04 08:26:22;;;;;;;10.43;4.97;;;;;;;;;;4988751;28;20119;-59
2023/05/04 08:28:48;;;;;;;10.30;5.45;;;13.10;29.40;;;;;;4986269;28;20068;-60
2023/05/04 08:31:14;;;;;;;12.45;5.35;;;13.10;24.50;;;;;;4991081;28;20781;-59
2023/05/04 08:33:40;;;;;;;10.85;4.97;;;13.70;25.70;;;;;;4988780;28;20046;-59
2023/05/04 08:36:08;;;;;;;8.75;4.80;;;;;;;;;;4998892;28;20041;-59
2023/05/04 08:38:34;;;;;;;13.05;5.70;;;13.60;19.50;;;;;;4989221;28;20046;-59
2023/05/04 08:41:03;;;;;;;11.98;5.93;;;13.40;20.30;;;;;;4987342;28;20144;-59
2023/05/04 08:43:30;;;;;;;12.65;5.75;;;13.50;23.20;;;;;;5085427;22;20041;-57
2023/05/04 08:45:55;;;;;;;11.20;4.80;;;13.40;11.00;;;;;;5015647;28;20106;-54
2023/05/04 08:48:21;;;;;;;8.77;4.82;;;13.70;13.00;;;;;;5014914;28;20542;-55
2023/05/04 08:50:47;;;;;;;8.95;5.03;;;13.30;12.90;;;;;;5015342;28;20068;-55
2023/05/04 08:53:14;;;;;;;9.75;4.90;;;13.70;17.00;;;;;;5033237;28;20032;-54
2023/05/04 08:55:42;;;;;;;11.05;4.93;;;12.90;12.70;;;;;;5035315;28;20079;-55
2023/05/04 08:58:11;;;;;;;11.00;4.63;;;13.00;12.90;;;;;;5034220;28;20106;-55
2023/05/04 09:00:38;;;;;;;10.38;5.20;;;13.70;20.70;;;;;;5034258;28;20049;-54
2023/05/04 09:03:06;;;;;;;9.85;4.57;;;12.70;12.40;;;;;;5035873;28;20055;-54
2023/05/04 09:05:32;;;;;;;11.45;4.70;;;12.90;11.10;;;;;;5035501;28;20153;-55
2023/05/04 09:07:58;;;;;;;10.85;4.60;;;12.80;12.50;;;;;;5035319;28;20040;-56
2023/05/04 09:10:24;;;;;;;9.18;5.10;;;12.80;10.30;;;;;;5033530;28;20468;-55
2023/05/04 09:12:53;;;;;;;9.43;5.07;;;12.90;11.80;;;;;;5034490;28;20099;-55
2023/05/04 09:15:20;;;;;;;11.63;5.13;;;13.20;11.50;;;;;;5034184;28;20102;-56
2023/05/04 09:18:02;;;;;;;9.38;5.13;;;13.60;10.00;;;;;;5032982;28;20067;-54
2023/05/04 09:20:30;;;;;;;14.25;6.32;;;14.10;2.30;;;;;;5031547;28;20044;-54
2023/05/04 09:23:07;;;;;;;10.95;5.25;;;13.50;24.40;;;;;;5035254;28;20132;-55
2023/05/04 09:25:34;;;;;;;9.45;5.35;;;13.90;12.90;;;;;;5032288;28;20052;-54
2023/05/04 09:28:00;;;;;;;10.95;6.07;;;14.20;5.70;;;;;;5034459;28;20064;-56
2023/05/04 09:30:26;;;;;;;9.32;4.88;;;13.50;7.90;;;;;;5034984;28;20329;-54
2023/05/04 09:32:52;;;;;;;10.93;5.35;;;13.60;5.00;;;;;;5034334;28;20045;-55
2023/05/04 09:35:29;;;;;;;12.68;5.40;;;14.30;7.10;;;;;;5033861;28;20033;-56
2023/05/04 09:37:56;;;;;;;9.23;5.00;;;14.00;1.00;;;;;;5034688;28;20075;-54
2023/05/04 09:40:34;;;;;;;9.93;5.68;;;13.70;1.00;;;;;;5034314;28;20414;-56
2023/05/04 09:43:00;;;;;;;8.65;4.72;;;14.50;6.10;;;;;;5027746;28;20263;-56
2023/05/04 09:45:47;;;;;;;13.00;5.93;;;14.70;1.00;;;;;;5032776;28;20056;-56
2023/05/04 09:48:18;;;;;;;10.43;5.05;;;15.20;8.50;;;;;;5028217;28;20048;-56
2023/05/04 09:50:55;;;;;;;10.75;5.15;;;14.90;14.00;;;;;;5033634;28;20037;-56
2023/05/04 09:53:26;;;;;;;11.70;4.90;;;14.50;1.00;;;;;;5032081;28;20572;-55
2023/05/04 09:56:09;;;;;;;8.68;4.32;;;14.90;4.70;;;;;;5027560;28;20056;-53
2023/05/04 09:58:36;;;;;;;9.30;5.68;;;14.70;1.00;;;;;;5034085;28;20098;-53
2023/05/04 10:01:02;;;;;;;11.00;5.22;;;15.40;1.00;;;;;;5023641;28;20049;-55
2023/05/04 10:03:28;;;;;;;9.95;4.93;;;15.10;1.00;;;;;;5033676;28;20040;-55
2023/05/04 10:05:56;;;;;;;8.68;4.70;;;15.10;1.00;;;;;;5030156;28;20545;-57
2023/05/04 10:08:22;;;;;;;9.80;4.63;;;15.50;1.00;;;;;;5033358;28;20118;-54
2023/05/04 10:10:48;;;;;;;10.95;4.50;;;14.80;1.00;;;;;;5030949;28;20040;-56
2023/05/04 10:13:16;;;;;;;9.50;4.80;;;15.50;1.00;;;;;;5029793;28;20037;-56
2023/05/04 10:16:11;;;;;;;10.77;4.78;;;15.30;1.00;;;;;;5023450;28;20045;-55
2023/05/04 10:19:12;;;;;;;11.57;5.35;;;14.90;1.00;;;;;;4985253;28;20060;-56
2023/05/04 10:21:37;;;;;;;8.80;4.53;;;15.50;1.00;;;;;;4947208;28;20057;-54
2023/05/04 10:24:26;;;;;;;9.10;4.78;;;15.90;1.00;;;;;;5017665;28;20059;-56
2023/05/04 10:26:58;;;;;;;9.52;4.88;;;15.50;1.00;;;;;;5027434;28;20072;-55
2023/05/04 10:29:32;;;;;;;13.05;4.97;;;15.00;1.00;;;;;;5033176;28;20048;-56
2023/05/04 10:31:58;;;;;;;7.00;4.43;;;15.20;1.00;;;;;;5026180;28;20463;-56
2023/05/04 10:34:34;;;;;;;13.77;5.15;;;15.50;1.00;;;;;;5026759;28;20036;-55
2023/05/04 10:37:00;;;;;;;9.40;5.18;;;15.00;1.00;;;;;;5022594;28;20049;-55
2023/05/04 10:39:29;;;;;;;9.93;4.88;;;15.90;1.00;;;;;;5029920;28;20539;-56
2023/05/04 10:42:03;;;;;;;11.95;4.60;;;15.40;1.00;;;;;;5029622;28;20058;-56
2023/05/04 10:44:31;;;;;;;10.57;5.10;;;16.50;1.00;;;;;;5029502;28;20095;-53
2023/05/04 10:47:05;;;;;;;9.80;4.88;;;15.50;1.00;;;;;;5024535;28;20044;-55
2023/05/04 10:49:32;;;;;;;11.85;4.97;;;16.70;1.00;;;;;;5037397;28;20037;-55
2023/05/04 10:52:06;;;;;;;9.82;5.38;;;16.80;1.00;;;;;;5031251;28;20052;-56
2023/05/04 10:54:33;;;;;;;10.63;4.53;;;16.40;1.00;;;;;;5039783;28;20037;-54
2023/05/04 10:57:02;;;;;;;9.55;4.50;;;17.10;1.00;;;;;;5029878;28;20044;-56
2023/05/04 10:59:28;;;;;;;8.35;4.70;;;16.30;1.00;;;;;;5035565;28;20037;-55
2023/05/04 11:01:54;;;;;;;8.90;4.43;;;16.80;1.00;;;;;;5036663;28;20422;-56
2023/05/04 11:04:21;;;;;;;12.18;5.00;;;16.80;1.00;;;;;;5034527;28;20037;-56
2023/05/04 11:07:05;;;;;;;8.07;4.50;;;16.90;1.00;;;;;;5034514;28;20085;-55
2023/05/04 11:09:45;;;;;;;9.07;4.67;;;16.10;1.00;;;;;;5034460;28;20106;-56
2023/05/04 11:12:13;;;;;;;9.60;4.53;;;16.80;1.00;;;;;;5036612;28;20716;-56
2023/05/04 11:14:41;;;;;;;8.13;4.45;;;17.00;1.00;;;;;;5028938;28;20052;-56
2023/05/04 11:17:11;;;;;;;9.52;4.55;;;17.30;1.00;;;;;;5033443;28;20044;-55
2023/05/04 11:19:51;;;;;;;7.65;4.65;;;17.80;1.00;;;;;;5036654;28;20099;-55
2023/05/04 11:22:17;;;;;;;9.40;5.03;;;17.30;1.00;;;;;;5032966;28;20481;-56
2023/05/04 11:24:44;;;;;;;8.98;4.93;;;17.80;1.00;;;;;;5036388;28;20044;-57
2023/05/04 11:27:29;;;;;;;9.70;4.55;;;17.80;1.00;;;;;;5034395;28;20037;-57
2023/05/04 11:29:55;;;;;;;9.00;4.72;;;16.40;1.00;;;;;;5036636;28;21133;-56
2023/05/04 11:32:21;;;;;;;9.27;4.15;;;18.10;1.00;;;;;;5031437;28;20033;-57
2023/05/04 11:34:47;;;;;;;8.45;4.13;;;18.10;1.00;;;;;;5036028;28;20178;-57
2023/05/04 11:37:13;;;;;;;8.57;4.43;;;17.50;1.00;;;;;;5018464;28;20067;-56
2023/05/04 11:39:39;;;;;;;9.88;4.20;;;18.00;1.00;;;;;;5036893;28;20044;-56
2023/05/04 11:42:07;;;;;;;10.15;4.75;;;18.10;1.00;;;;;;5019138;28;20068;-56
2023/05/04 11:44:34;;;;;;;9.48;4.47;;;18.50;1.00;;;;;;5036786;28;20192;-57
2023/05/04 11:47:00;;;;;;;11.23;4.25;;;18.50;1.00;;;;;;5036002;28;20502;-56
2023/05/04 11:49:27;;;;;;;8.38;4.78;;;18.80;1.00;;;;;;5036512;28;20032;-56
2023/05/04 11:52:07;;;;;;;9.40;4.20;;;18.70;1.00;;;;;;5034683;28;20280;-57
2023/05/04 11:54:32;;;;;;;10.90;4.88;;;18.80;1.00;;;;;;5033167;28;20132;-56
2023/05/04 11:57:00;;;;;;;8.73;4.32;;;19.30;1.00;;;;;;5033651;28;20045;-57
2023/05/04 11:59:26;;;;;;;9.57;4.88;;;19.40;1.00;;;;;;5036288;28;20152;-56
2023/05/04 12:01:51;;;;;;;8.18;4.55;;;18.70;1.00;;;;;;5017701;28;20487;-58
2023/05/04 12:04:17;;;;;;;9.45;4.80;;;18.80;1.00;;;;;;5035369;28;20083;-57
2023/05/04 12:06:45;;;;;;;8.85;4.35;;;19.90;1.00;;;;;;5035444;28;20037;-56
2023/05/04 12:09:10;;;;;;;7.63;4.53;;;19.50;1.00;;;;;;5027493;28;20037;-54
2023/05/04 12:11:37;;;;;;;8.90;4.32;;;20.00;1.00;;;;;;5028518;28;20036;-56
2023/05/04 12:14:08;;;;;;;9.40;4.28;;;20.40;1.00;;;;;;5024399;28;20091;-55
2023/05/04 12:16:34;;;;;;;9.90;4.30;;;20.40;1.00;;;;;;5026198;28;20071;-57
2023/05/04 12:19:04;;;;;;;10.55;4.78;;;20.20;1.00;;;;;;5035960;28;20041;-53
2023/05/04 12:21:30;;;;;;;9.05;4.25;;;20.50;1.00;;;;;;5032049;28;20415;-55
2023/05/04 12:23:59;;;;;;;9.02;4.50;;;21.40;1.00;;;;;;5017835;28;20045;-58
2023/05/04 12:26:25;;;;;;;10.00;4.40;;;22.00;1.00;;;;;;5033603;28;20045;-55
2023/05/04 12:28:51;;;;;;;9.73;4.25;;;23.70;1.00;;;;;;5033466;28;20041;-57
2023/05/04 12:31:17;;;;;;;9.93;4.20;;;25.40;1.00;;;;;;5029817;28;20209;-54
2023/05/04 12:33:44;;;;;;;11.30;4.88;;;27.90;1.00;;;;;;5033582;28;20428;-57
2023/05/04 12:36:10;;;;;;;8.73;5.05;;;30.10;1.00;;;;;;5027379;28;20378;-53
2023/05/04 12:38:39;;;;;;;7.82;4.00;;;30.90;1.00;;;;;;5035021;28;20119;-55
2023/05/04 12:41:06;;;;;;;8.73;5.00;;;32.90;99.90;;;;;;5033665;28;20068;-56
2023/05/04 12:43:32;;;;;;;9.93;4.50;;;33.60;99.90;;;;;;5034626;28;20049;-57
2023/05/04 12:45:58;;;;;;;7.68;4.47;;;34.10;99.90;;;;;;5036519;28;20247;-55
2023/05/04 12:48:27;;;;;;;7.65;4.60;;;35.10;99.90;;;;;;5035289;28;20041;-56
2023/05/04 12:50:53;;;;;;;9.63;4.93;;;35.70;99.90;;;;;;5022878;28;20045;-56
2023/05/04 12:53:21;;;;;;;7.80;4.65;;;36.10;99.90;;;;;;5035017;28;20047;-56
2023/05/04 12:55:46;;;;;;;7.72;4.25;;;37.10;99.90;;;;;;5035196;28;20102;-56
2023/05/04 12:58:12;;;;;;;7.75;4.35;;;37.60;99.90;;;;;;5034966;28;20041;-56
2023/05/04 13:00:39;;;;;;;7.82;3.92;;;37.80;99.90;;;;;;5030101;28;20049;-55
2023/05/04 13:03:05;;;;;;;7.28;3.88;;;38.50;99.90;;;;;;5034465;28;20056;-57
2023/05/04 13:05:31;;;;;;;8.18;4.80;;;38.60;99.90;;;;;;5035046;28;20036;-57
2023/05/04 13:07:57;;;;;;;7.53;4.15;;;37.90;99.90;;;;;;5034541;28;20049;-56
2023/05/04 13:10:23;;;;;;;9.55;4.05;;;37.00;99.90;;;;;;5050634;28;20141;-56